Home   Weather   Canada   Ajax   Past weeks
Flag for Canada

Past Weather in Ajax, Ontario, Canada — Yesterday and Last 2 Weeks

Currently: 68 °F. Partly sunny. (Weather station: Toronto Pearson International Airport, Canada). See more current weather

Past Weather in Ajax — Graph

°F

Ajax Temperature Yesterday

Maximum temperature yesterday: 75 °F (at 10:00 am)
Minimum temperature yesterday: 68 °F (at 11:00 pm)
Average temperature yesterday: 71 °F

High & Low Weather Summary for the Past Weeks

 TemperatureHumidityPressure
High93 °F (Jun 19, 2:00 pm)100% (Jun 9, 12:00 am)30.32 "Hg (Jun 9, 12:00 am)
Low52 °F (Jun 9, 5:00 am)31% (Jun 15, 5:00 pm)29.48 "Hg (Jun 23, 2:37 pm)
Average69 °F73%29.97 "Hg
* Reported Jun 8 8:00 pm — Jun 23 8:00 pm, Ajax. Weather by CustomWeather, © 2024

Note: Actual official high and low records may vary slightly from our data, if they occured in-between our weather recording intervals... More about our weather records

Ajax Weather History for the Previous 24 Hours

Scroll right to see more
 ConditionsComfort  
Time TempWeatherWind HumidityBarometerVisibility
8:00 pm
Sun, Jun 23
70 °FPartly sunny.29 mph60%29.57 "Hg15 mi
7:00 pm72 °FPartly sunny.28 mph65%29.55 "Hg15 mi
6:00 pm73 °FPartly sunny.29 mph65%29.52 "Hg15 mi
5:00 pm75 °FPartly sunny.28 mph65%29.50 "Hg15 mi
4:00 pm77 °FPartly sunny.35 mph61%29.49 "Hg15 mi
3:00 pm79 °FBroken clouds.29 mph65%29.48 "Hg15 mi
2:37 pm79 °FSprinkles. Broken clouds.23 mph70%29.48 "Hg15 mi
2:00 pm79 °FBroken clouds.23 mph74%29.48 "Hg15 mi
1:10 pm79 °FBroken clouds.18 mph79%29.50 "Hg15 mi
1:00 pm75 °FSprinkles. Broken clouds.25 mph83%29.50 "Hg10 mi
12:00 pm75 °FCloudy.18 mph83%29.50 "Hg15 mi
11:00 am79 °FBroken clouds.21 mph74%29.51 "Hg15 mi
10:00 am75 °FBroken clouds.16 mph83%29.51 "Hg15 mi
9:00 am75 °FPartly sunny.14 mph89%29.53 "Hg15 mi
8:30 am73 °FSprinkles. Mostly cloudy.15 mph94%29.54 "Hg10 mi
8:23 am75 °FRain showers. Fog.10 mph83%29.53 "Hg5 mi
8:00 am73 °FMostly cloudy.7 mph89%29.51 "Hg15 mi
7:00 am72 °FPartly sunny.5 mph94%29.54 "Hg15 mi
6:00 am68 °FMostly cloudy.6 mph100%29.57 "Hg12 mi
5:00 am68 °FPassing clouds.2 mph100%29.59 "Hg15 mi
4:00 am68 °FOvercast.5 mph100%29.63 "Hg15 mi
3:00 am68 °FMostly cloudy.6 mph100%29.66 "Hg15 mi
2:00 am68 °FMostly cloudy.5 mph100%29.69 "Hg15 mi
1:00 am68 °FMostly cloudy.6 mph100%29.73 "Hg15 mi
12:00 am68 °FOvercast.7 mph100%29.77 "Hg15 mi
11:36 pm
Sat, Jun 22
68 °FLight rain. Mostly cloudy.3 mph100%29.79 "Hg15 mi
11:00 pm68 °FMostly cloudy.10 mph100%29.81 "Hg15 mi
10:00 pm70 °FOvercast.8 mph94%29.80 "Hg15 mi
9:00 pm70 °FOvercast.12 mph88%29.82 "Hg15 mi
Weather by CustomWeather, © 2024

See weather overview